Time,TemperatureF,DewpointF,PressureIn,WindDirection,WindDirectionDegrees,WindSpeedMPH,WindSpeedGustMPH,Humidity,HourlyPrecipIn,Conditions,Clouds,dailyrainin,SoftwareType,DateUTC
2013-04-01 00:00:00,69.0,-99.9,29.90,ESE,110,12.0,15.0,-999,-99.99,,,-99.99,,2013-04-01 05:00:00,
2013-04-01 00:33:00,69.0,-99.9,29.90,ESE,110,12.0,15.0,-999,-99.99,,,-99.99,,2013-04-01 05:33:00,
2013-04-01 00:43:00,69.0,-99.9,29.90,ESE,110,12.0,15.0,-999,-99.99,,,-99.99,,2013-04-01 05:43:00,
2013-04-01 00:53:00,69.0,-99.9,29.90,ESE,110,12.0,15.0,-999,-99.99,,,-99.99,,2013-04-01 05:53:00,
2013-04-01 01:00:00,69.0,-99.9,29.93,ESE,115,7.0,11.0,-999,-99.99,,,-99.99,,2013-04-01 06:00:00,
2013-04-01 01:34:00,69.0,-99.9,29.93,ESE,115,7.0,11.0,-999,-99.99,,,-99.99,,2013-04-01 06:34:00,
2013-04-01 01:43:00,69.0,-99.9,29.93,ESE,115,7.0,11.0,-999,-99.99,,,-99.99,,2013-04-01 06:43:00,
2013-04-01 01:53:00,69.0,-99.9,29.93,ESE,115,7.0,11.0,-999,-99.99,,,-99.99,,2013-04-01 06:53:00,
2013-04-01 02:00:00,69.0,-99.9,29.92,SE,124,10.0,13.0,-999,-99.99,,,-99.99,,2013-04-01 07:00:00,
2013-04-01 02:32:00,69.0,-99.9,29.92,SE,124,10.0,13.0,-999,-99.99,,,-99.99,,2013-04-01 07:32:00,
2013-04-01 02:43:00,69.0,-99.9,29.92,SE,124,10.0,13.0,-999,-99.99,,,-99.99,,2013-04-01 07:43:00,
2013-04-01 02:53:00,69.0,-99.9,29.92,SE,124,10.0,13.0,-999,-99.99,,,-99.99,,2013-04-01 07:53:00,
2013-04-01 03:00:00,69.0,-99.9,29.92,ESE,114,8.0,9.0,-999,-99.99,,,-99.99,,2013-04-01 08:00:00,
2013-04-01 03:32:00,69.0,-99.9,29.92,ESE,114,8.0,9.0,-999,-99.99,,,-99.99,,2013-04-01 08:32:00,
2013-04-01 03:44:00,69.0,-99.9,29.92,ESE,114,8.0,9.0,-999,-99.99,,,-99.99,,2013-04-01 08:44:00,
2013-04-01 03:53:00,69.0,-99.9,29.92,ESE,114,8.0,9.0,-999,-99.99,,,-99.99,,2013-04-01 08:53:00,
2013-04-01 04:00:00,68.0,-99.9,29.92,ESE,107,5.0,6.0,-999,-99.99,,,-99.99,,2013-04-01 09:00:00,
2013-04-01 04:33:00,68.0,-99.9,29.92,ESE,107,5.0,6.0,-999,-99.99,,,-99.99,,2013-04-01 09:33:00,
2013-04-01 04:43:00,68.0,-99.9,29.92,ESE,107,5.0,6.0,-999,-99.99,,,-99.99,,2013-04-01 09:43:00,
2013-04-01 04:54:00,68.0,-99.9,29.92,ESE,107,5.0,6.0,-999,-99.99,,,-99.99,,2013-04-01 09:54:00,
2013-04-01 05:00:00,68.0,-99.9,29.93,ESE,115,1.0,3.0,-999,-99.99,,,-99.99,,2013-04-01 10:00:00,
2013-04-01 05:34:00,68.0,-99.9,29.93,ESE,115,1.0,3.0,-999,-99.99,,,-99.99,,2013-04-01 10:34:00,
2013-04-01 05:43:00,68.0,-99.9,29.93,ESE,115,1.0,3.0,-999,-99.99,,,-99.99,,2013-04-01 10:43:00,
2013-04-01 05:54:00,68.0,-99.9,29.93,ESE,115,1.0,3.0,-999,-99.99,,,-99.99,,2013-04-01 10:54:00,
2013-04-01 06:00:00,68.0,-99.9,29.93,NE,43,3.0,4.0,-999,-99.99,,,-99.99,,2013-04-01 11:00:00,
2013-04-01 06:33:00,68.0,-99.9,29.93,NE,43,3.0,4.0,-999,-99.99,,,-99.99,,2013-04-01 11:33:00,
2013-04-01 06:43:00,68.0,-99.9,29.93,NE,43,3.0,4.0,-999,-99.99,,,-99.99,,2013-04-01 11:43:00,
2013-04-01 06:53:00,68.0,-99.9,29.93,NE,43,3.0,4.0,-999,-99.99,,,-99.99,,2013-04-01 11:53:00,
2013-04-01 07:00:00,68.0,-99.9,29.96,North,10,5.0,6.0,-999,-99.99,,,-99.99,,2013-04-01 12:00:00,
2013-04-01 07:33:00,68.0,-99.9,29.96,North,10,5.0,6.0,-999,-99.99,,,-99.99,,2013-04-01 12:33:00,
2013-04-01 07:43:00,68.0,-99.9,29.96,North,10,5.0,6.0,-999,-99.99,,,-99.99,,2013-04-01 12:43:00,
2013-04-01 07:53:00,68.0,-99.9,29.96,North,10,5.0,6.0,-999,-99.99,,,-99.99,,2013-04-01 12:53:00,
2013-04-01 08:00:00,69.0,-99.9,29.98,NNE,15,5.0,6.0,-999,-99.99,,,-99.99,,2013-04-01 13:00:00,
2013-04-01 08:33:00,69.0,-99.9,29.98,NNE,15,5.0,6.0,-999,-99.99,,,-99.99,,2013-04-01 13:33:00,
2013-04-01 08:43:00,69.0,-99.9,29.98,NNE,15,5.0,6.0,-999,-99.99,,,-99.99,,2013-04-01 13:43:00,
2013-04-01 08:53:00,69.0,-99.9,29.98,NNE,15,5.0,6.0,-999,-99.99,,,-99.99,,2013-04-01 13:53:00,
2013-04-01 09:00:00,69.0,-99.9,30.01,NE,41,8.0,9.0,-999,-99.99,,,-99.99,,2013-04-01 14:00:00,
2013-04-01 09:33:00,69.0,-99.9,30.01,NE,41,8.0,9.0,-999,-99.99,,,-99.99,,2013-04-01 14:33:00,
2013-04-01 09:43:00,69.0,-99.9,30.01,NE,41,8.0,9.0,-999,-99.99,,,-99.99,,2013-04-01 14:43:00,
2013-04-01 09:53:00,69.0,-99.9,30.01,NE,41,8.0,9.0,-999,-99.99,,,-99.99,,2013-04-01 14:53:00,
2013-04-01 10:00:00,70.0,-99.9,30.02,NE,49,10.0,11.0,-999,-99.99,,,-99.99,,2013-04-01 15:00:00,
2013-04-01 10:34:00,70.0,-99.9,30.02,NE,49,10.0,11.0,-999,-99.99,,,-99.99,,2013-04-01 15:34:00,
2013-04-01 10:44:00,70.0,-99.9,30.02,NE,49,10.0,11.0,-999,-99.99,,,-99.99,,2013-04-01 15:44:00,
2013-04-01 10:54:00,70.0,-99.9,30.02,NE,49,10.0,11.0,-999,-99.99,,,-99.99,,2013-04-01 15:54:00,
2013-04-01 11:00:00,70.0,-99.9,30.02,ENE,60,13.0,14.0,-999,-99.99,,,-99.99,,2013-04-01 16:00:00,
2013-04-01 11:33:00,70.0,-99.9,30.02,ENE,60,13.0,14.0,-999,-99.99,,,-99.99,,2013-04-01 16:33:00,
2013-04-01 11:43:00,70.0,-99.9,30.02,ENE,60,13.0,14.0,-999,-99.99,,,-99.99,,2013-04-01 16:43:00,
2013-04-01 11:53:00,70.0,-99.9,30.02,ENE,60,13.0,14.0,-999,-99.99,,,-99.99,,2013-04-01 16:53:00,
2013-04-01 12:00:00,70.0,-99.9,30.02,ENE,63,17.0,18.0,-999,-99.99,,,-99.99,,2013-04-01 17:00:00,
2013-04-01 12:42:00,70.0,-99.9,30.02,ENE,63,17.0,18.0,-999,-99.99,,,-99.99,,2013-04-01 17:42:00,
2013-04-01 12:54:00,70.0,-99.9,30.02,ENE,63,17.0,18.0,-999,-99.99,,,-99.99,,2013-04-01 17:54:00,
2013-04-01 13:00:00,70.0,-99.9,30.03,ENE,75,13.0,16.0,-999,-99.99,,,-99.99,,2013-04-01 18:00:00,
2013-04-01 13:33:00,70.0,-99.9,30.03,ENE,75,13.0,16.0,-999,-99.99,,,-99.99,,2013-04-01 18:33:00,
2013-04-01 13:43:00,70.0,-99.9,30.03,ENE,75,13.0,16.0,-999,-99.99,,,-99.99,,2013-04-01 18:43:00,
2013-04-01 13:54:00,70.0,-99.9,30.03,ENE,75,13.0,16.0,-999,-99.99,,,-99.99,,2013-04-01 18:54:00,
2013-04-01 14:00:00,70.0,-99.9,30.01,ENE,71,16.0,20.0,-999,-99.99,,,-99.99,,2013-04-01 19:00:00,
2013-04-01 14:43:00,70.0,-99.9,30.01,ENE,71,16.0,20.0,-999,-99.99,,,-99.99,,2013-04-01 19:43:00,
2013-04-01 14:53:00,70.0,-99.9,30.01,ENE,71,16.0,20.0,-999,-99.99,,,-99.99,,2013-04-01 19:53:00,
2013-04-01 15:00:00,70.0,-99.9,29.99,ENE,71,19.0,21.0,-999,-99.99,,,-99.99,,2013-04-01 20:00:00,
2013-04-01 15:33:00,70.0,-99.9,29.99,ENE,71,19.0,21.0,-999,-99.99,,,-99.99,,2013-04-01 20:33:00,
2013-04-01 15:43:00,70.0,-99.9,29.99,ENE,71,19.0,21.0,-999,-99.99,,,-99.99,,2013-04-01 20:43:00,
2013-04-01 15:52:00,70.0,-99.9,29.99,ENE,71,19.0,21.0,-999,-99.99,,,-99.99,,2013-04-01 20:52:00,
2013-04-01 16:00:00,70.0,-99.9,29.97,ENE,75,19.0,21.0,-999,-99.99,,,-99.99,,2013-04-01 21:00:00,
2013-04-01 16:33:00,70.0,-99.9,29.97,ENE,75,19.0,21.0,-999,-99.99,,,-99.99,,2013-04-01 21:33:00,
2013-04-01 16:44:00,70.0,-99.9,29.97,ENE,75,19.0,21.0,-999,-99.99,,,-99.99,,2013-04-01 21:44:00,
2013-04-01 16:53:00,70.0,-99.9,29.97,ENE,75,19.0,21.0,-999,-99.99,,,-99.99,,2013-04-01 21:53:00,
2013-04-01 17:00:00,71.0,-99.9,29.95,East,79,17.0,22.0,-999,-99.99,,,-99.99,,2013-04-01 22:00:00,
2013-04-01 17:33:00,71.0,-99.9,29.95,East,79,17.0,22.0,-999,-99.99,,,-99.99,,2013-04-01 22:33:00,
2013-04-01 17:43:00,71.0,-99.9,29.95,East,79,17.0,22.0,-999,-99.99,,,-99.99,,2013-04-01 22:43:00,
2013-04-01 17:52:00,71.0,-99.9,29.95,East,79,17.0,22.0,-999,-99.99,,,-99.99,,2013-04-01 22:52:00,
2013-04-01 18:00:00,70.0,-99.9,29.94,East,88,16.0,22.0,-999,-99.99,,,-99.99,,2013-04-01 23:00:00,
2013-04-01 18:32:00,70.0,-99.9,29.94,East,88,16.0,22.0,-999,-99.99,,,-99.99,,2013-04-01 23:32:00,
2013-04-01 18:43:00,70.0,-99.9,29.94,East,88,16.0,22.0,-999,-99.99,,,-99.99,,2013-04-01 23:43:00,
2013-04-01 18:53:00,70.0,-99.9,29.94,East,88,16.0,22.0,-999,-99.99,,,-99.99,,2013-04-01 23:53:00,
2013-04-01 19:00:00,70.0,-99.9,29.93,East,90,15.0,19.0,-999,-99.99,,,-99.99,,2013-04-02 00:00:00,
2013-04-01 19:33:00,70.0,-99.9,29.93,East,90,15.0,19.0,-999,-99.99,,,-99.99,,2013-04-02 00:33:00,
2013-04-01 19:43:00,70.0,-99.9,29.93,East,90,15.0,19.0,-999,-99.99,,,-99.99,,2013-04-02 00:43:00,
2013-04-01 19:53:00,70.0,-99.9,29.93,East,90,15.0,19.0,-999,-99.99,,,-99.99,,2013-04-02 00:53:00,
2013-04-01 20:00:00,69.0,-99.9,29.93,East,87,14.0,16.0,-999,-99.99,,,-99.99,,2013-04-02 01:00:00,
2013-04-01 20:32:00,69.0,-99.9,29.93,East,87,14.0,16.0,-999,-99.99,,,-99.99,,2013-04-02 01:32:00,
2013-04-01 20:43:00,69.0,-99.9,29.93,East,87,14.0,16.0,-999,-99.99,,,-99.99,,2013-04-02 01:43:00,
2013-04-01 20:53:00,69.0,-99.9,29.93,East,87,14.0,16.0,-999,-99.99,,,-99.99,,2013-04-02 01:53:00,
2013-04-01 21:00:00,69.0,-99.9,29.95,East,89,14.0,16.0,-999,-99.99,,,-99.99,,2013-04-02 02:00:00,
2013-04-01 21:33:00,69.0,-99.9,29.95,East,89,14.0,16.0,-999,-99.99,,,-99.99,,2013-04-02 02:33:00,
2013-04-01 21:43:00,69.0,-99.9,29.95,East,89,14.0,16.0,-999,-99.99,,,-99.99,,2013-04-02 02:43:00,
2013-04-01 21:53:00,69.0,-99.9,29.95,East,89,14.0,16.0,-999,-99.99,,,-99.99,,2013-04-02 02:53:00,
2013-04-01 22:00:00,69.0,-99.9,29.96,East,94,12.0,15.0,-999,-99.99,,,-99.99,,2013-04-02 03:00:00,
2013-04-01 22:34:00,69.0,-99.9,29.96,East,94,12.0,15.0,-999,-99.99,,,-99.99,,2013-04-02 03:34:00,
2013-04-01 22:43:00,69.0,-99.9,29.96,East,94,12.0,15.0,-999,-99.99,,,-99.99,,2013-04-02 03:43:00,
2013-04-01 22:53:00,69.0,-99.9,29.96,East,94,12.0,15.0,-999,-99.99,,,-99.99,,2013-04-02 03:53:00,
2013-04-01 23:00:00,69.0,-99.9,29.96,East,101,13.0,16.0,-999,-99.99,,,-99.99,,2013-04-02 04:00:00,
2013-04-01 23:33:00,69.0,-99.9,29.96,East,101,13.0,16.0,-999,-99.99,,,-99.99,,2013-04-02 04:33:00,
2013-04-01 23:43:00,69.0,-99.9,29.96,East,101,13.0,16.0,-999,-99.99,,,-99.99,,2013-04-02 04:43:00,
2013-04-01 23:53:00,69.0,-99.9,29.96,East,101,13.0,16.0,-999,-99.99,,,-99.99,,2013-04-02 04:53:00,